createdAt,value
2022-12-05T00:01:39.086Z,6.50
2022-12-05T00:04:09.397Z,6.50
2022-12-05T00:06:41.827Z,6.60
2022-12-05T00:09:14.049Z,6.60
2022-12-05T00:11:50.326Z,6.60
2022-12-05T00:14:21.229Z,6.60
2022-12-05T00:16:51.791Z,6.60
2022-12-05T00:19:25.626Z,6.60
2022-12-05T00:21:55.321Z,6.60
2022-12-05T00:24:23.127Z,6.60
2022-12-05T00:26:53.987Z,6.60
2022-12-05T00:29:22.682Z,6.70
2022-12-05T00:31:58.469Z,6.70
2022-12-05T00:34:30.077Z,6.70
2022-12-05T00:36:59.994Z,6.70
2022-12-05T00:39:27.777Z,6.70
2022-12-05T00:41:56.251Z,6.70
2022-12-05T00:47:30.792Z,6.70
2022-12-05T00:49:59.036Z,6.70
2022-12-05T00:52:28.165Z,6.70
2022-12-05T00:55:02.269Z,6.70
2022-12-05T00:57:30.021Z,6.70
2022-12-05T00:59:58.508Z,6.70
2022-12-05T01:02:26.897Z,6.70
2022-12-05T01:04:55.551Z,6.70
2022-12-05T01:07:32.303Z,6.70
2022-12-05T01:10:04.704Z,6.70
2022-12-05T01:12:32.060Z,6.70
2022-12-05T01:15:00.401Z,6.70
2022-12-05T01:17:28.516Z,6.70
2022-12-05T01:19:57.724Z,6.70
2022-12-05T01:22:31.686Z,6.80
2022-12-05T01:25:06.602Z,6.70
2022-12-05T01:27:34.302Z,6.70
2022-12-05T01:30:02.048Z,6.70
2022-12-05T01:32:29.314Z,6.70
2022-12-05T01:34:57.130Z,6.70
2022-12-05T01:37:24.972Z,6.70
2022-12-05T01:39:53.040Z,6.70
2022-12-05T01:42:25.977Z,6.70
2022-12-05T01:45:07.817Z,6.70
2022-12-05T01:47:37.533Z,6.70
2022-12-05T01:50:19.249Z,6.70
2022-12-05T01:52:47.102Z,6.70
2022-12-05T01:55:18.306Z,6.70
2022-12-05T01:57:50.439Z,6.70
2022-12-05T02:00:22.064Z,6.70
2022-12-05T02:02:56.561Z,6.70
2022-12-05T02:05:27.723Z,6.70
2022-12-05T02:07:55.525Z,6.70
2022-12-05T02:10:22.785Z,6.80
2022-12-05T02:12:50.904Z,6.80
2022-12-05T02:15:27.403Z,6.80
2022-12-05T02:18:19.129Z,6.80
2022-12-05T02:21:12.545Z,6.80
2022-12-05T02:24:01.601Z,6.80
2022-12-05T02:26:31.988Z,6.80
2022-12-05T02:29:06.933Z,6.80
2022-12-05T02:31:59.396Z,6.80
2022-12-05T02:34:34.822Z,6.80
2022-12-05T02:37:21.361Z,6.80
2022-12-05T02:40:00.784Z,6.80
2022-12-05T02:42:53.327Z,6.80
2022-12-05T02:45:27.991Z,6.90
2022-12-05T02:47:56.335Z,6.90
2022-12-05T02:50:29.761Z,6.90
2022-12-05T02:53:01.488Z,6.90
2022-12-05T02:55:31.337Z,6.90
2022-12-05T02:58:04.451Z,6.90
2022-12-05T03:00:32.245Z,7.00
2022-12-05T03:03:04.913Z,7.00
2022-12-05T03:05:46.409Z,7.00
2022-12-05T03:08:21.023Z,7.00
2022-12-05T03:10:54.061Z,7.00
2022-12-05T03:13:41.037Z,7.10
2022-12-05T03:16:23.386Z,7.10
2022-12-05T03:19:00.204Z,7.10
2022-12-05T03:21:30.447Z,7.10
2022-12-05T03:24:06.176Z,7.00
2022-12-05T03:27:02.492Z,7.10
2022-12-05T03:29:47.288Z,7.10
2022-12-05T03:32:14.480Z,7.00
2022-12-05T03:34:54.274Z,7.10
2022-12-05T03:37:57.578Z,7.00
2022-12-05T03:40:28.264Z,7.00
2022-12-05T03:43:21.322Z,7.10
2022-12-05T03:46:01.220Z,7.10
2022-12-05T03:48:31.429Z,7.10
2022-12-05T03:51:00.917Z,7.10
2022-12-05T03:53:34.059Z,7.10
2022-12-05T03:56:14.880Z,7.10
2022-12-05T03:58:56.936Z,7.20
2022-12-05T04:01:31.947Z,7.20
2022-12-05T04:04:19.725Z,7.20
2022-12-05T04:06:53.704Z,7.20
2022-12-05T04:09:30.188Z,7.20
2022-12-05T04:12:05.653Z,7.20
2022-12-05T04:14:41.101Z,7.20
2022-12-05T04:17:35.255Z,7.20
2022-12-05T04:20:35.636Z,7.20
2022-12-05T04:23:06.742Z,7.20
2022-12-05T04:26:00.002Z,7.30
2022-12-05T04:28:39.651Z,7.20
2022-12-05T04:31:27.937Z,7.20
2022-12-05T04:34:05.537Z,7.30
2022-12-05T04:36:42.257Z,7.30
2022-12-05T04:39:41.987Z,7.30
2022-12-05T04:42:16.363Z,7.30
2022-12-05T04:45:06.581Z,7.30
2022-12-05T04:47:44.880Z,7.30
2022-12-05T04:50:14.175Z,7.30
2022-12-05T04:52:43.790Z,7.30
2022-12-05T04:55:19.227Z,7.30
2022-12-05T04:58:04.457Z,7.30
2022-12-05T05:00:40.459Z,7.30
2022-12-05T05:03:24.715Z,7.30
2022-12-05T05:05:55.100Z,7.30
2022-12-05T05:08:29.179Z,7.40
2022-12-05T05:11:15.905Z,7.40
2022-12-05T05:13:44.027Z,7.40
2022-12-05T05:16:23.457Z,7.40
2022-12-05T05:18:53.207Z,7.40
2022-12-05T05:21:40.574Z,7.40
2022-12-05T05:24:12.766Z,7.50
2022-12-05T05:26:43.075Z,7.40
2022-12-05T05:29:20.794Z,7.50
2022-12-05T05:31:49.759Z,7.50
2022-12-05T05:34:20.215Z,7.50
2022-12-05T05:36:54.651Z,7.50
2022-12-05T05:39:22.101Z,7.50
2022-12-05T05:41:50.147Z,7.50
2022-12-05T05:44:21.346Z,7.50
2022-12-05T05:47:04.420Z,7.50
2022-12-05T05:49:37.192Z,7.50
2022-12-05T05:52:13.286Z,7.50
2022-12-05T05:54:43.544Z,7.50
2022-12-05T05:57:17.531Z,7.50
2022-12-05T05:59:47.729Z,7.60
2022-12-05T06:02:15.457Z,7.60
2022-12-05T06:04:48.934Z,7.60
2022-12-05T06:07:16.754Z,7.60
2022-12-05T06:09:45.932Z,7.60
2022-12-05T06:12:13.660Z,7.70
2022-12-05T06:15:02.516Z,7.70
2022-12-05T06:20:31.356Z,7.70
2022-12-05T06:22:59.309Z,7.70
2022-12-05T06:28:21.693Z,7.70
2022-12-05T06:30:55.094Z,7.70
2022-12-05T06:33:22.151Z,7.70
2022-12-05T06:35:49.064Z,7.70
2022-12-05T06:38:19.100Z,7.80
2022-12-05T06:40:46.343Z,7.80
2022-12-05T06:43:13.246Z,7.80
2022-12-05T06:45:40.518Z,7.80
2022-12-05T06:48:07.586Z,7.80
2022-12-05T06:50:34.482Z,7.80
2022-12-05T06:53:01.322Z,7.80
2022-12-05T06:55:28.533Z,7.90
2022-12-05T06:57:55.370Z,7.90
2022-12-05T07:00:41.484Z,7.80
2022-12-05T07:03:10.756Z,7.90
2022-12-05T07:05:37.699Z,7.90
2022-12-05T07:08:04.886Z,7.90
2022-12-05T07:10:31.708Z,7.90
2022-12-05T07:12:58.534Z,7.90
2022-12-05T07:15:25.428Z,7.90
2022-12-05T07:17:52.255Z,7.90
2022-12-05T07:20:19.239Z,7.90
2022-12-05T07:22:46.333Z,7.90
2022-12-05T07:25:13.447Z,8.00
2022-12-05T07:27:40.232Z,8.00
2022-12-05T07:30:07.725Z,8.00
2022-12-05T07:32:34.618Z,8.00
2022-12-05T07:35:01.479Z,8.00
2022-12-05T07:37:28.356Z,8.00
2022-12-05T07:39:55.245Z,8.00
2022-12-05T07:42:25.352Z,8.10
2022-12-05T07:44:52.238Z,8.10
2022-12-05T07:47:24.012Z,8.10
2022-12-05T07:49:50.882Z,8.00
2022-12-05T07:52:17.794Z,8.10
2022-12-05T07:54:44.605Z,8.10
2022-12-05T07:57:11.499Z,8.10
2022-12-05T07:59:38.409Z,8.10
2022-12-05T08:02:05.292Z,8.10
2022-12-05T08:04:32.125Z,8.10
2022-12-05T08:06:58.896Z,8.10
2022-12-05T08:09:25.794Z,8.10
2022-12-05T08:11:53.089Z,8.20
2022-12-05T08:14:20.058Z,8.10
2022-12-05T08:16:47.165Z,8.20
2022-12-05T08:19:16.872Z,8.20
2022-12-05T08:21:44.048Z,8.20
2022-12-05T08:24:11.238Z,8.20
2022-12-05T08:26:39.038Z,8.20
2022-12-05T08:29:08.698Z,8.20
2022-12-05T08:31:40.470Z,8.30
2022-12-05T08:34:07.649Z,8.30
2022-12-05T08:36:34.554Z,8.30
2022-12-05T08:39:04.683Z,8.30
2022-12-05T08:41:32.448Z,8.40
2022-12-05T08:44:05.664Z,8.40
2022-12-05T08:46:35.205Z,8.40
2022-12-05T08:49:05.445Z,8.40
2022-12-05T08:51:32.396Z,8.40
2022-12-05T08:53:59.722Z,8.40
2022-12-05T08:56:27.499Z,8.40
2022-12-05T08:59:01.294Z,8.50
2022-12-05T09:01:32.145Z,8.50
2022-12-05T09:04:01.874Z,8.50
2022-12-05T09:06:29.821Z,8.50
2022-12-05T09:09:04.897Z,8.50
2022-12-05T09:11:34.568Z,8.50
2022-12-05T09:14:02.340Z,8.50
2022-12-05T09:16:36.839Z,8.60
2022-12-05T09:19:11.533Z,8.60
2022-12-05T09:21:38.522Z,8.60
2022-12-05T09:24:05.428Z,8.70
2022-12-05T09:26:32.321Z,8.70
2022-12-05T09:28:59.557Z,8.70
2022-12-05T09:31:27.452Z,8.70
2022-12-05T09:33:54.552Z,8.70
2022-12-05T09:36:27.681Z,8.70
2022-12-05T09:38:56.059Z,8.70
2022-12-05T09:41:45.962Z,8.80
2022-12-05T09:44:15.825Z,8.80
2022-12-05T09:46:58.046Z,8.80
2022-12-05T09:49:26.204Z,8.80
2022-12-05T09:51:55.591Z,8.80
2022-12-05T09:54:23.588Z,8.80
2022-12-05T09:56:53.058Z,8.80
2022-12-05T09:59:20.871Z,8.80
2022-12-05T10:02:04.332Z,8.80
2022-12-05T10:05:03.181Z,8.80
2022-12-05T10:07:33.494Z,8.80
2022-12-05T10:10:24.449Z,8.80
2022-12-05T10:13:06.482Z,8.80
2022-12-05T10:15:46.162Z,8.80
2022-12-05T10:18:25.195Z,8.80
2022-12-05T10:21:14.725Z,8.80
2022-12-05T10:23:58.268Z,8.80
2022-12-05T10:26:36.708Z,8.80
2022-12-05T10:29:38.366Z,8.80
2022-12-05T10:32:16.378Z,8.90
2022-12-05T10:34:45.761Z,8.80
2022-12-05T10:37:21.190Z,8.90
2022-12-05T10:39:51.399Z,8.90
2022-12-05T10:42:31.809Z,8.90
2022-12-05T10:45:03.220Z,8.90
2022-12-05T10:47:32.132Z,8.90
2022-12-05T10:50:07.868Z,8.90
2022-12-05T10:52:35.534Z,8.90
2022-12-05T10:55:08.470Z,8.90
2022-12-05T10:57:35.607Z,8.90
2022-12-05T11:00:23.845Z,8.90
2022-12-05T11:02:51.621Z,9.00
2022-12-05T11:05:29.440Z,9.00
2022-12-05T11:07:58.414Z,9.00
2022-12-05T11:10:34.502Z,9.00
2022-12-05T11:13:13.720Z,9.00
2022-12-05T11:15:48.458Z,9.10
2022-12-05T11:18:31.800Z,9.20
2022-12-05T11:21:13.929Z,9.20
2022-12-05T11:23:41.239Z,9.20
2022-12-05T11:26:19.298Z,9.20
2022-12-05T11:28:46.561Z,9.20
2022-12-05T11:31:16.346Z,9.20
2022-12-05T11:33:43.253Z,9.20
2022-12-05T11:36:23.332Z,9.20
2022-12-05T11:38:53.589Z,9.20
2022-12-05T11:41:38.652Z,9.20
2022-12-05T11:44:28.377Z,9.20
2022-12-05T11:47:37.312Z,9.20
2022-12-05T11:50:17.376Z,9.20
2022-12-05T11:52:50.503Z,9.20
2022-12-05T11:55:48.022Z,9.20
2022-12-05T11:58:33.103Z,9.20
2022-12-05T12:01:13.454Z,9.20
2022-12-05T12:03:50.370Z,9.20
2022-12-05T12:06:25.519Z,9.20
2022-12-05T12:09:28.921Z,9.20
2022-12-05T12:12:06.198Z,9.20
2022-12-05T12:15:14.568Z,9.20
2022-12-05T12:17:55.241Z,9.20
2022-12-05T12:20:43.805Z,9.30
2022-12-05T12:23:44.844Z,9.30
2022-12-05T12:26:30.455Z,9.30
2022-12-05T12:28:57.255Z,9.30
2022-12-05T12:31:34.673Z,9.30
2022-12-05T12:34:23.029Z,9.30
2022-12-05T12:37:14.150Z,9.40
2022-12-05T12:39:56.449Z,9.40
2022-12-05T12:42:26.503Z,9.40
2022-12-05T12:45:14.685Z,9.50
2022-12-05T12:47:58.352Z,9.50
2022-12-05T12:50:43.862Z,9.50
2022-12-05T12:53:11.306Z,9.50
2022-12-05T12:56:15.687Z,9.40
2022-12-05T12:59:03.253Z,9.40
2022-12-05T13:01:35.534Z,9.40
2022-12-05T13:04:25.137Z,9.40
2022-12-05T13:06:59.867Z,9.30
2022-12-05T13:09:41.931Z,9.30
2022-12-05T13:12:13.763Z,9.30
2022-12-05T13:14:54.160Z,9.30
2022-12-05T13:17:22.692Z,9.30
2022-12-05T13:19:51.865Z,9.40
2022-12-05T13:22:22.485Z,9.40
2022-12-05T13:24:53.864Z,9.40
2022-12-05T13:27:23.707Z,9.40
2022-12-05T13:30:01.222Z,9.50
2022-12-05T13:32:40.366Z,9.50
2022-12-05T13:35:07.133Z,9.50
2022-12-05T13:37:53.102Z,9.50
2022-12-05T13:40:55.985Z,9.50
2022-12-05T13:43:28.414Z,9.50
2022-12-05T13:46:09.588Z,9.50
2022-12-05T13:48:44.250Z,9.60
2022-12-05T13:51:30.564Z,9.50
2022-12-05T13:54:03.942Z,9.50
2022-12-05T13:56:51.380Z,9.50
2022-12-05T13:59:56.406Z,9.50
2022-12-05T14:02:46.080Z,9.40
2022-12-05T14:05:19.055Z,9.40
2022-12-05T14:08:02.235Z,9.40
2022-12-05T14:10:36.851Z,9.40
2022-12-05T14:13:24.031Z,9.40
2022-12-05T14:15:55.305Z,9.40
2022-12-05T14:18:42.892Z,9.40
2022-12-05T14:21:38.658Z,9.40
2022-12-05T14:24:26.403Z,9.40
2022-12-05T14:27:29.866Z,9.30
2022-12-05T14:30:23.749Z,9.30
2022-12-05T14:32:53.185Z,9.30
2022-12-05T14:35:43.519Z,9.30
2022-12-05T14:38:23.666Z,9.30
2022-12-05T14:40:50.922Z,9.30
2022-12-05T14:43:30.785Z,9.30
2022-12-05T14:46:02.081Z,9.20
2022-12-05T14:48:33.409Z,9.20
2022-12-05T14:51:02.476Z,9.20
2022-12-05T14:53:32.173Z,9.30
2022-12-05T14:56:23.324Z,9.30
2022-12-05T14:58:59.119Z,9.30
2022-12-05T15:01:30.457Z,9.20
2022-12-05T15:04:03.821Z,9.30
2022-12-05T15:06:44.176Z,9.30
2022-12-05T15:09:37.624Z,9.30
2022-12-05T15:12:11.886Z,9.30
2022-12-05T15:15:09.964Z,9.30
2022-12-05T15:17:58.199Z,9.30
2022-12-05T15:20:40.110Z,9.20
2022-12-05T15:23:38.871Z,9.20
2022-12-05T15:26:44.812Z,9.20
2022-12-05T15:29:10.575Z,9.20
2022-12-05T15:32:10.153Z,9.20
2022-12-05T15:34:50.273Z,9.20
2022-12-05T15:37:19.268Z,9.20
2022-12-05T15:40:01.090Z,9.20
2022-12-05T15:42:32.258Z,9.20
2022-12-05T15:45:17.321Z,9.20
2022-12-05T15:47:50.236Z,9.20
2022-12-05T15:50:37.442Z,9.20
2022-12-05T15:53:38.491Z,9.20
2022-12-05T15:56:31.162Z,9.20
2022-12-05T15:59:29.006Z,9.20
2022-12-05T16:02:04.800Z,9.20
2022-12-05T16:04:41.926Z,9.30
2022-12-05T16:07:11.663Z,9.30
2022-12-05T16:09:42.264Z,9.20
2022-12-05T16:12:24.313Z,9.20
2022-12-05T16:14:59.940Z,9.20
2022-12-05T16:17:37.640Z,9.20
2022-12-05T16:20:16.781Z,9.20
2022-12-05T16:22:49.069Z,9.20
2022-12-05T16:25:21.583Z,9.20
2022-12-05T16:27:57.928Z,9.20
2022-12-05T16:30:28.528Z,9.20
2022-12-05T16:33:08.375Z,9.20
2022-12-05T16:35:42.877Z,9.20
2022-12-05T16:38:23.060Z,9.20
2022-12-05T16:40:54.737Z,9.10
2022-12-05T16:43:30.279Z,9.10
2022-12-05T16:46:13.075Z,9.20
2022-12-05T16:48:45.562Z,9.20
2022-12-05T16:51:28.464Z,9.20
2022-12-05T16:53:56.840Z,9.10
2022-12-05T16:56:30.607Z,9.10
2022-12-05T16:58:58.569Z,9.20
2022-12-05T17:01:27.138Z,9.10
2022-12-05T17:03:55.444Z,9.20
2022-12-05T17:06:24.464Z,9.20
2022-12-05T17:08:52.348Z,9.20
2022-12-05T17:11:26.081Z,9.20
2022-12-05T17:13:54.500Z,9.20
2022-12-05T17:16:22.150Z,9.20
2022-12-05T17:18:49.669Z,9.20
2022-12-05T17:21:20.097Z,9.20
2022-12-05T17:23:48.611Z,9.20
2022-12-05T17:26:18.895Z,9.20
2022-12-05T17:28:46.842Z,9.20
2022-12-05T17:31:21.966Z,9.20
2022-12-05T17:33:51.709Z,9.20
2022-12-05T17:36:22.253Z,9.20
2022-12-05T17:38:49.590Z,9.20
2022-12-05T17:41:24.833Z,9.20
2022-12-05T17:43:52.157Z,9.20
2022-12-05T17:46:23.800Z,9.20
2022-12-05T17:48:53.641Z,9.30
2022-12-05T17:51:21.333Z,9.30
2022-12-05T17:53:48.349Z,9.20
2022-12-05T17:56:16.036Z,9.20
2022-12-05T17:58:42.966Z,9.20
2022-12-05T18:01:18.796Z,9.20
2022-12-05T18:03:47.738Z,9.20
2022-12-05T18:06:15.091Z,9.20
2022-12-05T18:08:45.385Z,9.20
2022-12-05T18:11:15.367Z,9.20
2022-12-05T18:13:42.385Z,9.20
2022-12-05T18:16:12.480Z,9.30
2022-12-05T18:18:39.468Z,9.30
2022-12-05T18:21:11.765Z,9.30
2022-12-05T18:23:40.283Z,9.30
2022-12-05T18:26:08.721Z,9.20
2022-12-05T18:28:38.527Z,9.20
2022-12-05T18:31:10.913Z,9.20
2022-12-05T18:33:38.498Z,9.20
2022-12-05T18:36:15.926Z,9.20
2022-12-05T18:38:48.835Z,9.20
2022-12-05T18:41:16.371Z,9.20
2022-12-05T18:43:43.558Z,9.20
2022-12-05T18:46:10.690Z,9.20
2022-12-05T18:48:40.759Z,9.20
2022-12-05T18:51:16.153Z,9.20
2022-12-05T18:53:51.746Z,9.20
2022-12-05T18:56:30.981Z,9.20
2022-12-05T18:59:08.058Z,9.20
2022-12-05T19:01:37.683Z,9.20
2022-12-05T19:04:12.329Z,9.20
2022-12-05T19:06:41.922Z,9.20
2022-12-05T19:09:20.491Z,9.20
2022-12-05T19:12:01.056Z,9.20
2022-12-05T19:14:33.021Z,9.10
2022-12-05T19:17:01.950Z,9.10
2022-12-05T19:19:29.927Z,9.20
2022-12-05T19:21:58.903Z,9.10
2022-12-05T19:24:29.838Z,9.20
2022-12-05T19:26:56.988Z,9.10
2022-12-05T19:29:27.234Z,9.20
2022-12-05T19:31:54.638Z,9.20
2022-12-05T19:34:22.706Z,9.20
2022-12-05T19:36:49.852Z,9.20
2022-12-05T19:39:23.716Z,9.20
2022-12-05T19:41:56.412Z,9.20
2022-12-05T19:44:23.636Z,9.20
2022-12-05T19:46:54.701Z,9.20
2022-12-05T19:49:23.200Z,9.20
2022-12-05T19:51:50.548Z,9.20
2022-12-05T19:54:22.164Z,9.20
2022-12-05T19:56:50.603Z,9.20
2022-12-05T19:59:17.981Z,9.20
2022-12-05T20:01:45.365Z,9.20
2022-12-05T20:04:14.959Z,9.20
2022-12-05T20:06:45.347Z,9.20
2022-12-05T20:09:13.992Z,9.20
2022-12-05T20:11:43.822Z,9.20
2022-12-05T20:14:13.413Z,9.20
2022-12-05T20:16:40.800Z,9.20
2022-12-05T20:19:09.546Z,9.20
2022-12-05T20:21:39.593Z,9.20
2022-12-05T20:24:07.253Z,9.20
2022-12-05T20:26:43.016Z,9.20
2022-12-05T20:29:16.143Z,9.20
2022-12-05T20:31:43.724Z,9.20
2022-12-05T20:34:13.485Z,9.20
2022-12-05T20:36:40.636Z,9.20
2022-12-05T20:39:12.573Z,9.20
2022-12-05T20:41:39.476Z,9.20
2022-12-05T20:44:09.368Z,9.20
2022-12-05T20:46:37.184Z,9.30
2022-12-05T20:49:04.455Z,9.20
2022-12-05T20:51:34.260Z,9.30
2022-12-05T20:54:03.975Z,9.30
2022-12-05T20:56:32.946Z,9.30
2022-12-05T20:59:10.376Z,9.30
2022-12-05T21:01:38.562Z,9.30
2022-12-05T21:04:14.851Z,9.30
2022-12-05T21:06:46.118Z,9.20
2022-12-05T21:12:11.644Z,9.20
2022-12-05T21:14:39.424Z,9.20
2022-12-05T21:17:06.344Z,9.20
2022-12-05T21:19:33.377Z,9.20
2022-12-05T21:22:00.354Z,9.20
2022-12-05T21:24:28.691Z,9.20
2022-12-05T21:26:55.835Z,9.20
2022-12-05T21:29:22.785Z,9.20
2022-12-05T21:31:53.860Z,9.20
2022-12-05T21:34:21.849Z,9.20
2022-12-05T21:36:49.217Z,9.20
2022-12-05T21:39:16.438Z,9.20
2022-12-05T21:41:43.525Z,9.20
2022-12-05T21:44:10.565Z,9.20
2022-12-05T21:46:40.286Z,9.20
2022-12-05T21:49:07.564Z,9.20
2022-12-05T21:51:34.463Z,9.20
2022-12-05T21:54:02.120Z,9.20
2022-12-05T21:56:29.873Z,9.20
2022-12-05T21:58:56.844Z,9.20
2022-12-05T22:01:27.091Z,9.20
2022-12-05T22:04:02.027Z,9.20
2022-12-05T22:06:33.759Z,9.20
2022-12-05T22:09:01.370Z,9.20
2022-12-05T22:11:29.163Z,9.20
2022-12-05T22:13:56.357Z,9.20
2022-12-05T22:16:29.023Z,9.20
2022-12-05T22:18:59.494Z,9.20
2022-12-05T22:21:26.636Z,9.20
2022-12-05T22:23:53.547Z,9.20
2022-12-05T22:26:23.198Z,9.20
2022-12-05T22:28:54.052Z,9.20
2022-12-05T22:31:24.758Z,9.20
2022-12-05T22:33:51.736Z,9.20
2022-12-05T22:36:19.601Z,9.30
2022-12-05T22:38:48.072Z,9.30
2022-12-05T22:41:26.379Z,9.30
2022-12-05T22:43:59.105Z,9.30
2022-12-05T22:46:28.017Z,9.30
2022-12-05T22:48:56.471Z,9.30
2022-12-05T22:51:23.592Z,9.20
2022-12-05T22:53:54.261Z,9.20
2022-12-05T22:56:23.603Z,9.20
2022-12-05T22:58:55.465Z,9.20
2022-12-05T23:01:25.265Z,9.20
2022-12-05T23:03:58.686Z,9.20
2022-12-05T23:06:27.116Z,9.20
2022-12-05T23:08:54.980Z,9.10
2022-12-05T23:11:23.204Z,9.10
2022-12-05T23:13:50.855Z,9.10
2022-12-05T23:16:26.942Z,9.10
2022-12-05T23:18:56.858Z,9.10
2022-12-05T23:21:31.040Z,9.10
2022-12-05T23:24:04.341Z,9.10
2022-12-05T23:26:38.760Z,9.10
2022-12-05T23:29:06.736Z,9.10
2022-12-05T23:31:34.198Z,9.10
2022-12-05T23:34:03.848Z,9.10
2022-12-05T23:36:33.162Z,9.10
2022-12-05T23:39:00.919Z,9.20
2022-12-05T23:41:28.734Z,9.10
2022-12-05T23:43:56.807Z,9.10
2022-12-05T23:46:26.347Z,9.10
2022-12-05T23:48:55.324Z,9.10
2022-12-05T23:51:30.176Z,9.10
2022-12-05T23:54:00.326Z,9.10
2022-12-05T23:56:30.262Z,9.10
2022-12-05T23:58:57.843Z,9.10
